Terminal Aerodrome Forecast
Issued by NWS Lake Charles, LA

Home | Current Version | Previous Version | Text Only | Print | Product List | Glossary On
Versions: 1 2 3 4 5 6 7 8 9 10 11 12 13 14 15 16 17 18 19 20 21 22 23
372
FTUS44 KLCH 170538
TAFBPT
TAF
KBPT 170538Z 1706/1806 16011G15KT P6SM BKN007 BKN020 OVC027
      TEMPO 1706/1710 4SM BR SCT008 OVC017
     FM171000 15008KT 4SM BR VCSH OVC005
      TEMPO 1710/1714 2SM BR FEW009 OVC016
     FM171500 16010KT 6SM BR VCSH OVC012
      TEMPO 1715/1719 -SHRA OVC023=

USA.gov is the U.S. government's official web portal to all federal, state and local government web resources and services.